createdAt,value
2019-04-23T00:04:18.115Z,58.40
2019-04-23T00:06:59.414Z,60.00
2019-04-23T00:09:31.238Z,50.40
2019-04-23T00:11:59.950Z,59.00
2019-04-23T00:14:40.899Z,58.40
2019-04-23T00:17:17.806Z,60.20
2019-04-23T00:19:39.731Z,57.60
2019-04-23T00:22:37.020Z,54.60
2019-04-23T00:27:50.337Z,57.00
2019-04-23T00:30:20.289Z,56.20
2019-04-23T00:32:51.754Z,59.00
2019-04-23T00:35:25.757Z,56.40
2019-04-23T00:37:55.158Z,59.80
2019-04-23T00:40:35.719Z,57.00
2019-04-23T00:43:11.897Z,59.80
2019-04-23T00:48:22.280Z,56.60
2019-04-23T00:50:52.829Z,54.60
2019-04-23T00:56:03.149Z,58.60
2019-04-23T00:58:32.408Z,55.80
2019-04-23T01:01:04.127Z,56.20
2019-04-23T01:03:26.289Z,52.00
2019-04-23T01:06:07.805Z,53.20
2019-04-23T01:08:45.751Z,51.40
2019-04-23T01:11:16.616Z,58.00
2019-04-23T01:13:48.947Z,65.80
2019-04-23T01:16:21.287Z,65.20
2019-04-23T01:19:24.829Z,62.80
2019-04-23T01:21:45.228Z,70.60
2019-04-23T01:24:38.480Z,61.80
2019-04-23T01:27:55.846Z,74.80
2019-04-23T01:30:18.020Z,79.00
2019-04-23T01:32:48.482Z,67.00
2019-04-23T01:35:20.370Z,71.40
2019-04-23T01:37:56.166Z,67.80
2019-04-23T01:40:34.778Z,71.80
2019-04-23T01:43:05.557Z,72.60
2019-04-23T01:45:30.744Z,71.60
2019-04-23T01:48:05.027Z,64.40
2019-04-23T01:50:52.109Z,56.00
2019-04-23T01:53:22.625Z,66.60
2019-04-23T01:55:54.440Z,59.20
2019-04-23T02:01:00.744Z,54.60
2019-04-23T02:03:38.488Z,52.40
2019-04-23T02:06:08.695Z,53.60
2019-04-23T02:08:43.497Z,46.60
2019-04-23T02:14:05.439Z,49.60
2019-04-23T02:16:24.634Z,47.40
2019-04-23T02:18:56.779Z,45.80
2019-04-23T02:21:33.417Z,42.60
2019-04-23T02:24:09.157Z,43.40
2019-04-23T02:26:36.807Z,36.00
2019-04-23T02:29:28.600Z,40.00
2019-04-23T02:34:51.920Z,35.00
2019-04-23T02:37:22.749Z,36.80
2019-04-23T02:39:40.167Z,37.80
2019-04-23T02:44:38.833Z,37.00
2019-04-23T02:47:21.848Z,35.60
2019-04-23T02:49:55.329Z,34.80
2019-04-23T02:52:21.695Z,29.40
2019-04-23T02:54:58.644Z,37.00
2019-04-23T02:57:35.590Z,34.20
2019-04-23T03:02:43.600Z,33.80
2019-04-23T03:05:11.684Z,33.40
2019-04-23T03:21:25.441Z,32.60
2019-04-23T03:24:21.128Z,33.40
2019-04-23T03:29:31.416Z,32.00
2019-04-23T03:32:45.922Z,33.40
2019-04-23T03:42:17.136Z,34.60
2019-04-23T03:47:24.788Z,33.00
2019-04-23T03:55:23.169Z,32.20
2019-04-23T03:57:30.982Z,30.60
2019-04-23T04:00:15.663Z,31.40
2019-04-23T04:05:22.677Z,32.60
2019-04-23T04:10:26.613Z,33.20
2019-04-23T04:12:57.638Z,34.20
2019-04-23T04:18:28.491Z,33.00
2019-04-23T04:21:01.171Z,33.20
2019-04-23T04:33:41.383Z,33.20
2019-04-23T04:36:18.097Z,33.60
2019-04-23T04:38:40.195Z,30.80
2019-04-23T04:57:00.654Z,33.60
2019-04-23T04:59:08.755Z,33.20
2019-04-23T05:01:37.760Z,34.60
2019-04-23T05:04:20.200Z,31.60
2019-04-23T05:06:56.662Z,33.40
2019-04-23T05:09:21.316Z,31.40
2019-04-23T05:17:13.375Z,30.80
2019-04-23T05:22:12.196Z,30.80
2019-04-23T05:24:43.249Z,32.00
2019-04-23T05:27:15.530Z,31.40
2019-04-23T05:29:54.296Z,31.60
2019-04-23T05:32:19.452Z,29.80
2019-04-23T05:35:00.597Z,28.60
2019-04-23T05:37:37.133Z,30.00
2019-04-23T05:40:12.661Z,28.60
2019-04-23T05:42:33.143Z,29.40
2019-04-23T05:45:14.395Z,29.00
2019-04-23T05:47:48.192Z,28.40
2019-04-23T05:50:18.863Z,28.00
2019-04-23T05:53:10.172Z,29.60
2019-04-23T05:55:20.351Z,28.00
2019-04-23T05:57:53.635Z,28.60
2019-04-23T06:00:34.786Z,24.60
2019-04-23T06:03:04.761Z,24.40
2019-04-23T06:05:38.761Z,26.20
2019-04-23T06:08:12.086Z,22.80
2019-04-23T06:10:55.840Z,27.00
2019-04-23T06:13:41.049Z,23.00
2019-04-23T06:16:08.416Z,25.40
2019-04-23T06:18:38.093Z,25.00
2019-04-23T06:21:12.916Z,25.00
2019-04-23T06:23:50.214Z,22.80
2019-04-23T06:29:08.899Z,24.00
2019-04-23T06:31:41.527Z,23.40
2019-04-23T06:34:17.151Z,20.40
2019-04-23T06:36:46.303Z,24.20
2019-04-23T06:39:15.887Z,25.00
2019-04-23T06:41:50.125Z,25.60
2019-04-23T06:47:16.735Z,24.20
2019-04-23T06:55:01.191Z,22.20
2019-04-23T06:57:41.122Z,25.00
2019-04-23T07:00:08.015Z,26.20
2019-04-23T07:02:59.769Z,26.60
2019-04-23T07:05:55.139Z,23.40
2019-04-23T07:08:32.488Z,24.80
2019-04-23T07:11:11.499Z,22.20
2019-04-23T07:13:54.725Z,23.20
2019-04-23T07:16:14.635Z,23.00
2019-04-23T07:21:25.137Z,23.80
2019-04-23T07:29:09.040Z,21.00
2019-04-23T07:31:40.963Z,20.60
2019-04-23T07:34:15.776Z,24.20
2019-04-23T07:36:48.376Z,25.40
2019-04-23T07:39:58.885Z,24.20
2019-04-23T07:42:44.610Z,24.20
2019-04-23T07:45:29.630Z,26.20
2019-04-23T07:48:24.229Z,24.00
2019-04-23T07:51:03.335Z,24.00
2019-04-23T07:53:41.241Z,23.60
2019-04-23T07:56:13.126Z,24.00
2019-04-23T07:58:54.374Z,24.60
2019-04-23T08:01:27.071Z,26.00
2019-04-23T08:04:18.245Z,23.60
2019-04-23T08:06:52.407Z,25.40
2019-04-23T08:09:24.629Z,25.00
2019-04-23T08:11:56.796Z,26.00
2019-04-23T08:14:34.355Z,24.00
2019-04-23T08:17:09.061Z,23.00
2019-04-23T08:19:49.383Z,22.00
2019-04-23T08:22:22.214Z,23.40
2019-04-23T08:25:12.853Z,26.00
2019-04-23T08:27:34.482Z,27.20
2019-04-23T08:30:06.219Z,26.20
2019-04-23T08:32:47.600Z,27.60
2019-04-23T08:35:15.998Z,24.60
2019-04-23T08:38:04.602Z,25.60
2019-04-23T08:40:52.769Z,26.20
2019-04-23T08:43:05.595Z,23.60
2019-04-23T08:45:52.978Z,27.20
2019-04-23T08:48:27.809Z,24.20
2019-04-23T08:51:19.411Z,27.00
2019-04-23T08:53:40.667Z,22.00
2019-04-23T08:56:08.722Z,25.20
2019-04-23T08:58:46.331Z,24.00
2019-04-23T09:01:16.938Z,24.00
2019-04-23T09:03:55.986Z,25.00
2019-04-23T09:06:27.634Z,23.00
2019-04-23T09:09:09.011Z,22.60
2019-04-23T09:11:45.990Z,25.60
2019-04-23T09:14:04.588Z,25.40
2019-04-23T09:19:23.225Z,24.20
2019-04-23T09:22:02.003Z,26.60
2019-04-23T09:24:32.683Z,25.00
2019-04-23T09:27:23.432Z,23.20
2019-04-23T09:38:08.297Z,25.60
2019-04-23T09:41:13.064Z,26.60
2019-04-23T09:44:07.868Z,26.00
2019-04-23T09:47:00.692Z,26.00
2019-04-23T09:52:09.539Z,26.60
2019-04-23T09:54:47.715Z,26.00
2019-04-23T09:57:15.955Z,25.80
2019-04-23T09:59:48.864Z,25.20
2019-04-23T10:02:19.514Z,14.60
2019-04-23T10:04:48.610Z,26.00
2019-04-23T10:07:23.859Z,27.80
2019-04-23T10:09:42.506Z,25.80
2019-04-23T10:12:17.756Z,26.00
2019-04-23T10:14:59.220Z,25.20
2019-04-23T10:17:29.987Z,27.60
2019-04-23T10:20:04.694Z,25.80
2019-04-23T10:22:39.571Z,26.00
2019-04-23T10:25:13.221Z,23.80
2019-04-23T10:27:45.369Z,24.20
2019-04-23T10:30:19.671Z,26.00
2019-04-23T10:32:51.671Z,26.20
2019-04-23T10:35:35.036Z,27.00
2019-04-23T10:38:03.869Z,25.60
2019-04-23T10:40:38.182Z,25.40
2019-04-23T10:43:09.256Z,23.00
2019-04-23T10:46:31.133Z,26.80
2019-04-23T10:49:52.192Z,26.00
2019-04-23T10:57:06.158Z,23.60
2019-04-23T11:10:15.879Z,20.60
2019-04-23T11:17:58.300Z,20.20
2019-04-23T11:20:41.576Z,21.40
2019-04-23T11:23:04.849Z,22.60
2019-04-23T11:25:44.048Z,23.20
2019-04-23T11:36:57.992Z,23.00
2019-04-23T11:39:21.708Z,22.00
2019-04-23T11:42:12.279Z,22.20
2019-04-23T11:44:36.710Z,22.60
2019-04-23T11:47:29.024Z,22.80
2019-04-23T11:54:45.308Z,23.00
2019-04-23T11:59:55.636Z,22.20
2019-04-23T12:02:56.200Z,18.00
2019-04-23T12:06:17.294Z,23.40
2019-04-23T12:09:09.838Z,22.20
2019-04-23T12:14:40.536Z,23.20
2019-04-23T12:20:13.525Z,22.00
2019-04-23T12:22:43.526Z,24.20
2019-04-23T12:25:29.743Z,23.00
2019-04-23T12:27:51.714Z,23.80
2019-04-23T12:30:42.009Z,22.00
2019-04-23T12:33:10.691Z,21.20
2019-04-23T12:35:39.008Z,24.00
2019-04-23T12:38:26.981Z,23.20
2019-04-23T12:41:14.006Z,25.80
2019-04-23T12:43:40.607Z,25.20
2019-04-23T12:46:16.233Z,24.20
2019-04-23T12:49:28.348Z,23.00
2019-04-23T12:51:45.209Z,25.40
2019-04-23T12:54:37.998Z,23.20
2019-04-23T12:57:05.162Z,26.00
2019-04-23T13:02:32.800Z,24.20
2019-04-23T13:07:38.085Z,22.60
2019-04-23T13:12:52.894Z,23.00
2019-04-23T13:18:03.117Z,23.80
2019-04-23T13:20:33.629Z,24.60
2019-04-23T13:28:21.706Z,26.60
2019-04-23T13:31:00.739Z,27.00
2019-04-23T13:41:23.126Z,20.40
2019-04-23T13:43:42.577Z,26.20
2019-04-23T13:46:17.263Z,28.00
2019-04-23T13:48:47.039Z,29.00
2019-04-23T13:51:25.753Z,28.40
2019-04-23T13:54:08.190Z,30.20
2019-04-23T13:57:05.860Z,28.00
2019-04-23T13:59:26.349Z,28.80
2019-04-23T14:01:42.939Z,27.00
2019-04-23T14:04:38.666Z,27.20
2019-04-23T14:09:45.997Z,29.60
2019-04-23T14:12:18.211Z,23.40
2019-04-23T14:14:56.309Z,25.80
2019-04-23T14:20:07.147Z,27.00
2019-04-23T14:25:11.415Z,29.20
2019-04-23T14:28:00.176Z,30.00
2019-04-23T14:32:54.122Z,30.60
2019-04-23T14:38:19.953Z,34.00
2019-04-23T14:40:42.974Z,32.60
2019-04-23T14:46:14.623Z,31.00
2019-04-23T14:48:20.617Z,31.40
2019-04-23T14:50:48.803Z,30.00
2019-04-23T14:53:40.630Z,31.20
2019-04-23T15:06:35.811Z,31.00
2019-04-23T15:11:45.148Z,31.40
2019-04-23T15:14:11.871Z,31.80
2019-04-23T15:16:49.791Z,32.00
2019-04-23T15:19:40.154Z,33.40
2019-04-23T15:22:12.071Z,33.00
2019-04-23T15:24:30.614Z,33.80
2019-04-23T15:29:27.566Z,33.00
2019-04-23T15:34:52.098Z,33.40
2019-04-23T15:37:33.245Z,32.00
2019-04-23T15:39:55.092Z,32.40
2019-04-23T15:42:25.403Z,33.00
2019-04-23T15:45:00.954Z,32.40
2019-04-23T15:47:31.861Z,32.80
2019-04-23T15:50:10.050Z,32.60
2019-04-23T15:52:47.267Z,32.00
2019-04-23T15:55:12.252Z,32.00
2019-04-23T16:00:17.854Z,31.60
2019-04-23T16:02:27.073Z,31.60
2019-04-23T16:05:00.038Z,33.20
2019-04-23T16:07:51.907Z,31.40
2019-04-23T16:10:28.784Z,33.60
2019-04-23T16:13:32.427Z,32.40
2019-04-23T16:15:46.690Z,32.00
2019-04-23T16:18:45.388Z,31.40
2019-04-23T16:21:10.523Z,33.00
2019-04-23T16:23:37.510Z,33.40
2019-04-23T16:26:14.715Z,31.00
2019-04-23T16:31:34.775Z,33.40
2019-04-23T16:34:27.327Z,35.00
2019-04-23T16:37:06.118Z,34.80
2019-04-23T16:39:49.330Z,33.00
2019-04-23T16:42:08.800Z,34.20
2019-04-23T16:44:59.696Z,33.00
2019-04-23T16:47:21.883Z,32.20
2019-04-23T16:50:04.740Z,33.80
2019-04-23T16:52:26.406Z,35.00
2019-04-23T16:55:13.788Z,33.60
2019-04-23T17:02:48.024Z,34.20
2019-04-23T17:05:19.701Z,35.00
2019-04-23T17:08:08.387Z,35.80
2019-04-23T17:15:40.438Z,34.80
2019-04-23T17:18:18.369Z,34.00
2019-04-23T17:20:52.982Z,35.00
2019-04-23T17:28:29.093Z,31.00
2019-04-23T17:31:26.302Z,32.60
2019-04-23T17:36:38.520Z,32.40
2019-04-23T17:39:18.185Z,33.40
2019-04-23T17:42:12.783Z,32.40
2019-04-23T17:47:35.564Z,33.80
2019-04-23T17:50:20.211Z,32.40
2019-04-23T17:52:42.051Z,34.00
2019-04-23T17:57:55.924Z,33.60
2019-04-23T18:00:33.570Z,28.00
2019-04-23T18:02:59.695Z,34.00
2019-04-23T18:05:40.316Z,34.00
2019-04-23T18:10:37.054Z,34.20
2019-04-23T18:13:13.326Z,36.80
2019-04-23T18:15:46.137Z,42.20
2019-04-23T18:18:23.574Z,43.00
2019-04-23T18:23:41.289Z,42.80
2019-04-23T18:26:14.195Z,44.60
2019-04-23T18:28:58.288Z,39.80
2019-04-23T18:31:44.606Z,40.40
2019-04-23T18:34:26.528Z,42.00
2019-04-23T18:36:38.783Z,35.40
2019-04-23T18:39:26.243Z,40.20
2019-04-23T18:42:04.004Z,36.80
2019-04-23T18:44:35.020Z,34.00
2019-04-23T18:47:00.486Z,36.00
2019-04-23T18:52:14.604Z,35.00
2019-04-23T18:54:40.497Z,40.20
2019-04-23T18:57:13.037Z,37.60
2019-04-23T19:00:03.337Z,35.40
2019-04-23T19:03:11.544Z,37.20
2019-04-23T19:06:10.533Z,37.60
2019-04-23T19:09:00.595Z,32.20
2019-04-23T19:11:35.658Z,35.20
2019-04-23T19:14:03.184Z,34.20
2019-04-23T19:16:53.447Z,33.40
2019-04-23T19:19:20.404Z,34.80
2019-04-23T19:24:28.389Z,35.20
2019-04-23T19:28:09.204Z,37.60
2019-04-23T19:33:41.913Z,37.20
2019-04-23T19:36:13.807Z,36.20
2019-04-23T19:41:47.555Z,38.20
2019-04-23T19:43:56.236Z,35.40
2019-04-23T19:46:36.936Z,34.80
2019-04-23T19:49:07.211Z,37.40
2019-04-23T19:51:39.770Z,37.00
2019-04-23T19:56:47.256Z,35.60
2019-04-23T19:59:15.427Z,33.80
2019-04-23T20:01:49.744Z,35.20
2019-04-23T20:04:23.446Z,35.20
2019-04-23T20:09:47.884Z,35.00
2019-04-23T20:14:42.158Z,35.60
2019-04-23T20:17:34.097Z,37.60
2019-04-23T20:19:48.564Z,35.20
2019-04-23T20:22:33.961Z,35.20
2019-04-23T20:25:20.926Z,35.60
2019-04-23T20:27:39.237Z,35.80
2019-04-23T20:36:10.589Z,35.60
2019-04-23T20:41:21.421Z,37.00
2019-04-23T20:43:57.640Z,39.20
2019-04-23T20:46:24.876Z,37.20
2019-04-23T20:51:36.351Z,37.80
2019-04-23T20:56:42.482Z,38.00
2019-04-23T20:59:12.300Z,42.00
2019-04-23T21:02:15.279Z,42.20
2019-04-23T21:04:47.479Z,39.60
2019-04-23T21:07:17.602Z,42.20
2019-04-23T21:10:01.048Z,43.80
2019-04-23T21:12:42.485Z,43.80
2019-04-23T21:15:05.329Z,39.80
2019-04-23T21:17:35.665Z,41.20
2019-04-23T21:22:39.559Z,38.00
2019-04-23T21:25:09.448Z,37.80
2019-04-23T21:27:55.348Z,35.60
2019-04-23T21:31:02.194Z,37.20
2019-04-23T21:33:24.561Z,34.60
2019-04-23T21:36:22.366Z,37.60
2019-04-23T21:39:23.080Z,36.20
2019-04-23T21:41:58.032Z,35.60
2019-04-23T21:47:07.750Z,36.00
2019-04-23T21:49:47.711Z,35.20
2019-04-23T21:54:47.154Z,34.20
2019-04-23T21:57:16.897Z,37.60
2019-04-23T21:59:55.664Z,36.40
2019-04-23T22:02:27.709Z,34.80
2019-04-23T22:05:19.442Z,33.60
2019-04-23T22:07:41.998Z,34.20
2019-04-23T22:10:02.712Z,36.80
2019-04-23T22:12:46.944Z,35.40
2019-04-23T22:15:13.303Z,35.60
2019-04-23T22:17:46.283Z,36.80
2019-04-23T22:25:39.250Z,33.20
2019-04-23T22:28:00.745Z,35.00
2019-04-23T22:30:38.612Z,35.40
2019-04-23T22:33:09.856Z,33.20
2019-04-23T22:35:48.314Z,33.80
2019-04-23T22:38:20.759Z,37.00
2019-04-23T22:40:58.170Z,37.40
2019-04-23T22:43:38.165Z,36.60
2019-04-23T22:48:46.154Z,37.40
2019-04-23T22:51:21.076Z,36.20
2019-04-23T22:53:53.211Z,40.20
2019-04-23T22:56:44.269Z,38.20
2019-04-23T22:59:18.606Z,38.00
2019-04-23T23:01:43.138Z,38.80
2019-04-23T23:09:34.257Z,40.40
2019-04-23T23:14:27.937Z,37.80
2019-04-23T23:17:02.249Z,35.80
2019-04-23T23:22:44.605Z,33.00
2019-04-23T23:24:56.446Z,37.80
2019-04-23T23:27:54.322Z,40.20
2019-04-23T23:30:26.697Z,37.20
2019-04-23T23:35:28.416Z,34.80
2019-04-23T23:38:08.305Z,39.20
2019-04-23T23:40:47.591Z,36.40
2019-04-23T23:43:23.386Z,37.00
2019-04-23T23:51:01.544Z,40.20
2019-04-23T23:53:34.548Z,41.00
2019-04-23T23:58:40.750Z,41.00
